createdAt,value
2023-05-10T00:00:44.956Z,99.90
2023-05-10T00:03:13.500Z,99.90
2023-05-10T00:05:42.363Z,99.90
2023-05-10T00:08:11.196Z,99.90
2023-05-10T00:10:42.150Z,99.90
2023-05-10T00:13:10.690Z,99.90
2023-05-10T00:15:39.281Z,99.90
2023-05-10T00:18:07.697Z,99.90
2023-05-10T00:20:36.185Z,99.90
2023-05-10T00:23:04.738Z,99.90
2023-05-10T00:25:33.282Z,99.90
2023-05-10T00:28:03.520Z,99.90
2023-05-10T00:30:32.401Z,99.90
2023-05-10T00:33:01.529Z,99.90
2023-05-10T00:35:30.186Z,99.90
2023-05-10T00:37:58.674Z,99.90
2023-05-10T00:40:27.209Z,99.90
2023-05-10T00:43:00.577Z,99.90
2023-05-10T00:45:30.729Z,99.90
2023-05-10T00:48:00.962Z,99.90
2023-05-10T00:50:29.810Z,99.90
2023-05-10T00:52:58.497Z,99.90
2023-05-10T00:55:27.142Z,99.90
2023-05-10T00:57:56.050Z,99.90
2023-05-10T01:00:24.482Z,99.90
2023-05-10T01:02:55.865Z,99.90
2023-05-10T01:05:24.550Z,99.90
2023-05-10T01:07:53.756Z,99.90
2023-05-10T01:10:22.508Z,99.90
2023-05-10T01:12:51.101Z,99.90
2023-05-10T01:15:22.248Z,99.90
2023-05-10T01:17:51.360Z,99.90
2023-05-10T01:20:21.385Z,99.90
2023-05-10T01:23:13.020Z,99.90
2023-05-10T01:26:06.262Z,99.90
2023-05-10T01:29:01.461Z,99.90
2023-05-10T01:31:53.333Z,99.90
2023-05-10T01:34:26.443Z,99.90
2023-05-10T01:37:05.407Z,99.90
2023-05-10T01:39:44.804Z,99.90
2023-05-10T01:42:19.941Z,99.90
2023-05-10T01:44:57.085Z,99.90
2023-05-10T01:47:33.136Z,99.90
2023-05-10T01:50:04.760Z,99.90
2023-05-10T01:52:38.841Z,99.90
2023-05-10T01:55:11.272Z,99.90
2023-05-10T01:57:43.116Z,99.90
2023-05-10T02:00:13.755Z,99.90
2023-05-10T02:02:48.865Z,99.90
2023-05-10T02:05:19.495Z,99.90
2023-05-10T02:07:51.508Z,99.90
2023-05-10T02:10:21.007Z,99.90
2023-05-10T02:12:52.184Z,99.90
2023-05-10T02:15:25.881Z,99.90
2023-05-10T02:17:58.077Z,99.90
2023-05-10T02:20:28.029Z,99.90
2023-05-10T02:22:58.434Z,99.90
2023-05-10T02:25:29.880Z,99.90
2023-05-10T02:28:00.243Z,99.90
2023-05-10T02:30:29.231Z,99.90
2023-05-10T02:33:00.296Z,99.90
2023-05-10T02:35:29.513Z,99.90
2023-05-10T02:38:00.754Z,99.90
2023-05-10T02:40:30.508Z,99.90
2023-05-10T02:43:01.548Z,99.90
2023-05-10T02:45:33.300Z,99.90
2023-05-10T02:48:03.873Z,99.90
2023-05-10T02:50:35.831Z,99.90
2023-05-10T02:53:09.167Z,99.90
2023-05-10T02:55:40.533Z,99.90
2023-05-10T02:58:09.413Z,99.90
2023-05-10T03:00:38.392Z,99.90
2023-05-10T03:03:08.883Z,99.90
2023-05-10T03:05:37.462Z,99.90
2023-05-10T03:08:07.231Z,99.90
2023-05-10T03:10:42.986Z,99.90
2023-05-10T03:13:19.635Z,99.90
2023-05-10T03:15:59.931Z,99.90
2023-05-10T03:18:39.151Z,99.90
2023-05-10T03:21:13.506Z,99.90
2023-05-10T03:23:46.477Z,99.90
2023-05-10T03:26:20.046Z,99.90
2023-05-10T03:28:50.564Z,99.90
2023-05-10T03:31:20.672Z,99.90
2023-05-10T03:33:51.498Z,99.90
2023-05-10T03:36:25.173Z,99.90
2023-05-10T03:38:54.055Z,99.90
2023-05-10T03:41:22.749Z,99.90
2023-05-10T03:43:51.316Z,99.90
2023-05-10T03:46:20.065Z,99.90
2023-05-10T03:48:50.125Z,99.90
2023-05-10T03:51:18.612Z,99.90
2023-05-10T03:53:47.327Z,99.90
2023-05-10T03:56:16.379Z,99.90
2023-05-10T03:58:45.070Z,99.90
2023-05-10T04:01:13.656Z,99.90
2023-05-10T04:03:42.366Z,99.90
2023-05-10T04:06:13.314Z,99.90
2023-05-10T04:08:41.927Z,99.90
2023-05-10T04:11:11.448Z,99.90
2023-05-10T04:13:40.172Z,99.90
2023-05-10T04:16:08.799Z,99.90
2023-05-10T04:18:37.509Z,99.90
2023-05-10T04:21:06.173Z,99.90
2023-05-10T04:23:36.039Z,99.90
2023-05-10T04:26:05.378Z,99.90
2023-05-10T04:28:33.927Z,99.90
2023-05-10T04:31:05.935Z,99.90
2023-05-10T04:33:34.921Z,99.90
2023-05-10T04:36:04.108Z,99.90
2023-05-10T04:38:32.715Z,99.90
2023-05-10T04:41:09.582Z,99.90
2023-05-10T04:43:39.042Z,99.90
2023-05-10T04:46:08.216Z,99.90
2023-05-10T04:48:36.928Z,99.90
2023-05-10T04:51:07.542Z,99.90
2023-05-10T04:53:36.215Z,99.90
2023-05-10T04:56:08.567Z,99.90
2023-05-10T04:58:37.351Z,99.90
2023-05-10T05:01:09.435Z,99.90
2023-05-10T05:03:38.299Z,99.90
2023-05-10T05:06:07.561Z,99.90
2023-05-10T05:08:39.273Z,99.90
2023-05-10T05:11:09.394Z,99.90
2023-05-10T05:13:38.625Z,99.90
2023-05-10T05:16:08.028Z,99.90
2023-05-10T05:18:36.652Z,99.90
2023-05-10T05:21:05.366Z,99.90
2023-05-10T05:23:33.884Z,99.90
2023-05-10T05:26:02.376Z,99.90
2023-05-10T05:28:34.137Z,99.90
2023-05-10T05:31:02.754Z,99.90
2023-05-10T05:33:31.289Z,99.90
2023-05-10T05:36:02.186Z,99.90
2023-05-10T05:38:30.734Z,99.90
2023-05-10T05:40:59.590Z,99.90
2023-05-10T05:43:28.294Z,99.90
2023-05-10T05:45:59.091Z,99.90
2023-05-10T05:48:27.916Z,99.90
2023-05-10T05:50:58.064Z,99.90
2023-05-10T05:53:28.586Z,99.90
2023-05-10T05:56:00.084Z,99.90
2023-05-10T05:58:29.064Z,99.90
2023-05-10T06:01:01.789Z,99.90
2023-05-10T06:03:30.431Z,99.90
2023-05-10T06:05:58.987Z,99.90
2023-05-10T06:08:27.521Z,99.90
2023-05-10T06:10:56.055Z,99.90
2023-05-10T06:13:24.644Z,99.90
2023-05-10T06:15:53.167Z,99.90
2023-05-10T06:18:22.970Z,99.90
2023-05-10T06:20:52.769Z,99.90
2023-05-10T06:23:21.310Z,99.90
2023-05-10T06:25:49.836Z,99.90
2023-05-10T06:28:18.431Z,99.90
2023-05-10T06:30:47.055Z,99.90
2023-05-10T06:33:17.066Z,99.90
2023-05-10T06:35:47.671Z,99.90
2023-05-10T06:38:16.244Z,99.90
2023-05-10T06:40:45.102Z,99.90
2023-05-10T06:43:13.803Z,99.90
2023-05-10T06:45:43.638Z,99.90
2023-05-10T06:48:12.392Z,99.90
2023-05-10T06:50:40.933Z,99.90
2023-05-10T06:53:10.944Z,99.90
2023-05-10T06:55:39.610Z,99.90
2023-05-10T06:58:09.170Z,99.90
2023-05-10T07:00:40.381Z,99.90
2023-05-10T07:03:09.191Z,99.90
2023-05-10T07:05:38.179Z,99.90
2023-05-10T07:08:06.819Z,99.90
2023-05-10T07:10:37.045Z,99.90
2023-05-10T07:13:05.704Z,99.90
2023-05-10T07:15:34.566Z,99.90
2023-05-10T07:18:03.379Z,99.90
2023-05-10T07:20:33.624Z,99.90
2023-05-10T07:23:02.628Z,99.90
2023-05-10T07:25:34.060Z,99.90
2023-05-10T07:28:05.363Z,99.90
2023-05-10T07:30:33.963Z,99.90
2023-05-10T07:33:02.759Z,99.90
2023-05-10T07:35:31.422Z,99.90
2023-05-10T07:37:59.921Z,99.90
2023-05-10T07:40:28.525Z,99.90
2023-05-10T07:42:57.119Z,99.90
2023-05-10T07:45:27.127Z,99.90
2023-05-10T07:47:55.844Z,99.90
2023-05-10T07:50:24.451Z,99.90
2023-05-10T07:52:53.089Z,99.90
2023-05-10T07:55:22.243Z,99.90
2023-05-10T07:57:50.832Z,99.90
2023-05-10T08:00:21.342Z,99.90
2023-05-10T08:02:51.728Z,99.90
2023-05-10T08:05:20.373Z,99.90
2023-05-10T08:07:48.922Z,99.90
2023-05-10T08:10:17.974Z,99.90
2023-05-10T08:12:46.700Z,99.90
2023-05-10T08:15:15.694Z,99.90
2023-05-10T08:17:45.271Z,99.90
2023-05-10T08:20:17.776Z,99.90
2023-05-10T08:22:46.978Z,99.90
2023-05-10T08:25:16.085Z,99.90
2023-05-10T08:27:45.299Z,99.90
2023-05-10T08:30:15.325Z,99.90
2023-05-10T08:32:44.356Z,99.90
2023-05-10T08:35:14.437Z,99.90
2023-05-10T08:37:43.052Z,99.90
2023-05-10T08:40:14.105Z,99.90
2023-05-10T08:42:47.695Z,99.90
2023-05-10T08:45:17.456Z,99.90
2023-05-10T08:47:47.179Z,99.90
2023-05-10T08:50:18.913Z,99.90
2023-05-10T08:52:49.035Z,99.90
2023-05-10T08:55:18.575Z,99.90
2023-05-10T08:57:48.887Z,99.90
2023-05-10T09:00:19.130Z,99.90
2023-05-10T09:02:47.939Z,99.90
2023-05-10T09:05:18.892Z,99.90
2023-05-10T09:07:48.077Z,99.90
2023-05-10T09:10:20.191Z,99.90
2023-05-10T09:12:50.070Z,99.90
2023-05-10T09:15:20.391Z,99.90
2023-05-10T09:17:51.412Z,99.90
2023-05-10T09:20:21.537Z,99.90
2023-05-10T09:22:50.750Z,99.90
2023-05-10T09:25:19.740Z,99.90
2023-05-10T09:27:49.846Z,99.90
2023-05-10T09:30:20.014Z,99.90
2023-05-10T09:32:51.199Z,99.90
2023-05-10T09:35:22.924Z,99.90
2023-05-10T09:37:53.011Z,99.90
2023-05-10T09:40:23.192Z,99.90
2023-05-10T09:42:56.637Z,99.90
2023-05-10T09:45:26.642Z,99.90
2023-05-10T09:47:55.733Z,99.90
2023-05-10T09:50:26.643Z,99.90
2023-05-10T09:52:58.861Z,99.90
2023-05-10T09:55:29.142Z,99.90
2023-05-10T09:58:02.504Z,99.90
2023-05-10T10:00:39.950Z,99.90
2023-05-10T10:03:16.342Z,99.90
2023-05-10T10:05:47.315Z,99.90
2023-05-10T10:08:17.684Z,99.90
2023-05-10T10:10:47.491Z,99.90
2023-05-10T10:13:16.499Z,99.90
2023-05-10T10:15:47.004Z,99.90
2023-05-10T10:18:16.738Z,99.90
2023-05-10T10:20:48.165Z,99.90
2023-05-10T10:23:17.677Z,99.90
2023-05-10T10:25:49.449Z,99.90
2023-05-10T10:28:28.254Z,99.90
2023-05-10T10:31:01.511Z,99.90
2023-05-10T10:33:42.321Z,99.90
2023-05-10T10:36:14.549Z,99.90
2023-05-10T10:39:03.987Z,99.90
2023-05-10T10:41:34.930Z,99.90
2023-05-10T10:44:35.585Z,99.90
2023-05-10T10:47:09.403Z,99.90
2023-05-10T10:49:46.079Z,99.90
2023-05-10T10:52:37.151Z,99.90
2023-05-10T10:55:09.414Z,99.90
2023-05-10T10:57:52.873Z,99.90
2023-05-10T11:00:27.583Z,99.90
2023-05-10T11:02:58.894Z,99.90
2023-05-10T11:05:49.075Z,99.90
2023-05-10T11:08:22.876Z,99.90
2023-05-10T11:10:54.000Z,99.90
2023-05-10T11:13:41.099Z,99.90
2023-05-10T11:16:14.891Z,99.90
2023-05-10T11:18:54.234Z,99.90
2023-05-10T11:21:23.031Z,99.90
2023-05-10T11:23:59.682Z,99.90
2023-05-10T11:26:32.589Z,99.90
2023-05-10T11:29:01.938Z,99.90
2023-05-10T11:31:31.019Z,99.90
2023-05-10T11:34:02.829Z,99.90
2023-05-10T11:36:34.765Z,99.90
2023-05-10T11:39:05.773Z,99.90
2023-05-10T11:41:34.436Z,99.90
2023-05-10T11:44:03.827Z,99.90
2023-05-10T11:46:32.335Z,99.90
2023-05-10T11:49:05.447Z,99.90
2023-05-10T11:51:37.449Z,99.10
2023-05-10T11:54:10.722Z,97.70
2023-05-10T11:56:39.668Z,95.80
2023-05-10T11:59:09.080Z,98.10
2023-05-10T12:01:38.234Z,98.20
2023-05-10T12:04:06.964Z,97.70
2023-05-10T12:06:42.448Z,97.10
2023-05-10T12:09:12.570Z,95.80
2023-05-10T12:11:44.573Z,97.60
2023-05-10T12:14:13.518Z,97.60
2023-05-10T12:16:42.656Z,99.10
2023-05-10T12:19:11.436Z,99.70
2023-05-10T12:21:42.503Z,99.90
2023-05-10T12:24:12.476Z,99.90
2023-05-10T12:26:41.344Z,99.90
2023-05-10T12:29:17.785Z,99.90
2023-05-10T12:31:57.426Z,99.90
2023-05-10T12:34:27.475Z,98.70
2023-05-10T12:36:56.889Z,97.80
2023-05-10T12:39:27.015Z,97.70
2023-05-10T12:41:55.562Z,97.80
2023-05-10T12:44:24.206Z,97.90
2023-05-10T12:46:52.795Z,96.70
2023-05-10T12:49:21.739Z,96.80
2023-05-10T12:51:50.423Z,98.00
2023-05-10T12:54:18.919Z,98.10
2023-05-10T12:56:48.803Z,98.50
2023-05-10T12:59:17.439Z,97.40
2023-05-10T13:01:46.071Z,95.10
2023-05-10T13:04:14.747Z,94.20
2023-05-10T13:06:43.582Z,94.30
2023-05-10T13:09:12.402Z,94.40
2023-05-10T13:11:41.245Z,94.60
2023-05-10T13:14:11.232Z,94.70
2023-05-10T13:16:39.760Z,95.20
2023-05-10T13:19:14.678Z,94.70
2023-05-10T13:21:43.305Z,93.10
2023-05-10T13:24:12.003Z,93.60
2023-05-10T13:26:40.529Z,92.70
2023-05-10T13:29:11.031Z,92.40
2023-05-10T13:31:39.709Z,91.70
2023-05-10T13:34:08.498Z,90.00
2023-05-10T13:36:37.082Z,85.50
2023-05-10T13:39:06.612Z,81.70
2023-05-10T13:41:35.527Z,79.60
2023-05-10T13:44:04.078Z,77.50
2023-05-10T13:46:34.002Z,76.70
2023-05-10T13:49:03.104Z,72.90
2023-05-10T13:51:32.687Z,73.20
2023-05-10T13:54:01.746Z,72.50
2023-05-10T13:56:30.475Z,70.90
2023-05-10T13:58:59.417Z,70.30
2023-05-10T14:01:28.315Z,69.80
2023-05-10T14:03:58.141Z,71.10
2023-05-10T14:06:28.064Z,71.60
2023-05-10T14:08:56.634Z,92.30
2023-05-10T14:11:25.704Z,99.90
2023-05-10T14:13:54.287Z,99.90
2023-05-10T14:16:22.990Z,99.90
2023-05-10T14:18:51.687Z,99.90
2023-05-10T14:21:21.673Z,99.90
2023-05-10T14:23:50.159Z,99.90
2023-05-10T14:26:18.722Z,99.90
2023-05-10T14:28:47.245Z,99.90
2023-05-10T14:31:18.013Z,99.90
2023-05-10T14:33:46.436Z,99.90
2023-05-10T14:36:23.705Z,99.90
2023-05-10T14:39:25.303Z,99.90
2023-05-10T14:41:59.695Z,99.90
2023-05-10T14:44:33.652Z,99.90
2023-05-10T14:47:32.640Z,99.90
2023-05-10T14:50:36.486Z,99.90
2023-05-10T15:05:08.129Z,99.90
2023-05-10T15:07:37.400Z,99.90
2023-05-10T15:10:08.672Z,99.90
2023-05-10T15:12:37.180Z,99.90
2023-05-10T15:15:06.412Z,99.90
2023-05-10T15:17:35.343Z,99.90
2023-05-10T15:20:05.356Z,99.90
2023-05-10T15:22:34.492Z,99.90
2023-05-10T15:25:04.197Z,99.90
2023-05-10T15:27:34.112Z,99.90
2023-05-10T15:30:02.992Z,99.90
2023-05-10T15:32:33.478Z,99.90
2023-05-10T15:35:02.185Z,99.90
2023-05-10T15:37:30.765Z,99.90
2023-05-10T15:40:04.974Z,99.90
2023-05-10T15:42:36.556Z,99.90
2023-05-10T15:45:06.391Z,99.90
2023-05-10T15:47:37.433Z,99.90
2023-05-10T15:50:06.708Z,99.90
2023-05-10T15:52:35.306Z,99.90
2023-05-10T15:55:04.165Z,99.90
2023-05-10T15:57:33.424Z,99.90
2023-05-10T16:00:05.820Z,99.90
2023-05-10T16:02:41.063Z,99.90
2023-05-10T16:05:10.960Z,99.90
2023-05-10T16:07:40.290Z,99.90
2023-05-10T16:10:11.429Z,99.90
2023-05-10T16:12:40.525Z,99.90
2023-05-10T16:15:12.145Z,99.90
2023-05-10T16:17:41.577Z,99.90
2023-05-10T16:20:11.161Z,99.90
2023-05-10T16:22:39.913Z,99.90
2023-05-10T16:25:09.037Z,99.90
2023-05-10T16:27:38.385Z,99.90
2023-05-10T16:30:11.113Z,99.90
2023-05-10T16:32:41.112Z,99.90
2023-05-10T16:35:10.927Z,99.90
2023-05-10T16:37:39.475Z,99.90
2023-05-10T16:40:09.916Z,99.90
2023-05-10T16:42:38.511Z,99.90
2023-05-10T16:45:09.112Z,99.90
2023-05-10T16:47:38.650Z,99.90
2023-05-10T16:50:09.971Z,99.90
2023-05-10T16:52:38.808Z,99.90
2023-05-10T16:55:07.951Z,99.90
2023-05-10T16:57:36.425Z,99.90
2023-05-10T17:00:05.405Z,99.90
2023-05-10T17:02:34.315Z,99.90
2023-05-10T17:05:03.083Z,99.90
2023-05-10T17:07:32.854Z,99.90
2023-05-10T17:10:01.549Z,99.90
2023-05-10T17:12:30.699Z,99.90
2023-05-10T17:14:59.188Z,99.90
2023-05-10T17:17:28.023Z,99.90
2023-05-10T17:19:56.488Z,99.90
2023-05-10T17:22:25.148Z,99.90
2023-05-10T17:24:54.866Z,99.90
2023-05-10T17:27:23.587Z,99.90
2023-05-10T17:29:56.597Z,99.90
2023-05-10T17:32:25.332Z,99.90
2023-05-10T17:34:53.893Z,99.90
2023-05-10T17:37:23.022Z,99.90
2023-05-10T17:39:54.168Z,99.90
2023-05-10T17:42:24.049Z,99.90
2023-05-10T17:44:52.789Z,99.90
2023-05-10T17:47:21.561Z,99.90
2023-05-10T17:49:50.501Z,99.90
2023-05-10T17:52:19.346Z,99.90
2023-05-10T17:54:48.337Z,99.90
2023-05-10T17:57:17.452Z,99.90
2023-05-10T17:59:47.800Z,99.90
2023-05-10T18:02:16.579Z,99.90
2023-05-10T18:04:45.538Z,99.90
2023-05-10T18:07:14.464Z,99.90
2023-05-10T18:09:43.916Z,99.90
2023-05-10T18:12:12.674Z,99.90
2023-05-10T18:14:51.560Z,99.90
2023-05-10T18:17:20.410Z,99.90
2023-05-10T18:19:50.039Z,99.90
2023-05-10T18:22:19.250Z,99.90
2023-05-10T18:24:48.070Z,99.90
2023-05-10T18:27:16.858Z,99.90
2023-05-10T18:29:45.917Z,99.90
2023-05-10T18:32:16.485Z,99.90
2023-05-10T18:34:45.129Z,99.90
2023-05-10T18:37:14.389Z,99.90
2023-05-10T18:39:43.381Z,99.90
2023-05-10T18:42:12.322Z,99.90
2023-05-10T18:44:41.029Z,99.90
2023-05-10T18:47:09.709Z,99.90
2023-05-10T18:49:40.180Z,99.90
2023-05-10T18:52:09.524Z,99.90
2023-05-10T18:54:38.343Z,99.90
2023-05-10T18:57:07.419Z,99.90
2023-05-10T18:59:36.163Z,99.90
2023-05-10T19:02:05.726Z,99.90
2023-05-10T19:04:34.435Z,99.90
2023-05-10T19:07:04.631Z,99.90
2023-05-10T19:09:33.575Z,99.90
2023-05-10T19:12:02.271Z,99.90
2023-05-10T19:14:31.568Z,99.90
2023-05-10T19:17:00.735Z,99.90
2023-05-10T19:19:31.959Z,99.90
2023-05-10T19:22:01.662Z,99.90
2023-05-10T19:24:31.714Z,99.90
2023-05-10T19:27:00.930Z,99.90
2023-05-10T19:29:29.968Z,99.90
2023-05-10T19:31:58.890Z,99.90
2023-05-10T19:34:27.522Z,99.90
2023-05-10T19:36:56.148Z,99.90
2023-05-10T19:39:24.833Z,99.90
2023-05-10T19:41:54.877Z,99.90
2023-05-10T19:44:23.545Z,99.90
2023-05-10T19:46:52.895Z,99.90
2023-05-10T19:49:22.093Z,99.90
2023-05-10T19:51:50.794Z,99.90
2023-05-10T19:54:19.516Z,99.90
2023-05-10T19:56:48.064Z,99.90
2023-05-10T19:59:19.470Z,99.90
2023-05-10T20:01:48.017Z,99.90
2023-05-10T20:04:16.669Z,99.90
2023-05-10T20:06:45.483Z,99.90
2023-05-10T20:09:14.278Z,99.90
2023-05-10T20:11:42.825Z,99.90
2023-05-10T20:14:11.581Z,99.90
2023-05-10T20:16:41.879Z,99.90
2023-05-10T20:19:11.911Z,99.90
2023-05-10T20:21:41.277Z,99.90
2023-05-10T20:24:10.627Z,99.90
2023-05-10T20:26:39.465Z,99.90
2023-05-10T20:29:09.463Z,99.90
2023-05-10T20:31:38.334Z,99.90
2023-05-10T20:34:08.592Z,99.90
2023-05-10T20:36:37.496Z,99.90
2023-05-10T20:39:06.161Z,99.90
2023-05-10T20:41:35.030Z,99.90
2023-05-10T20:44:03.534Z,99.90
2023-05-10T20:46:32.210Z,99.90
2023-05-10T20:49:01.426Z,99.90
2023-05-10T20:51:33.325Z,99.90
2023-05-10T20:54:04.534Z,99.90
2023-05-10T20:56:33.738Z,99.90
2023-05-10T20:59:02.246Z,99.90
2023-05-10T21:01:31.775Z,99.90
2023-05-10T21:04:00.360Z,99.90
2023-05-10T21:06:28.908Z,99.90
2023-05-10T21:08:59.270Z,99.90
2023-05-10T21:11:28.149Z,99.90
2023-05-10T21:13:56.789Z,99.90
2023-05-10T21:16:25.361Z,99.90
2023-05-10T21:18:53.868Z,99.90
2023-05-10T21:21:22.416Z,99.90
2023-05-10T21:23:50.995Z,99.90
2023-05-10T21:26:20.872Z,99.90
2023-05-10T21:28:49.268Z,99.90
2023-05-10T21:31:17.809Z,99.90
2023-05-10T21:33:47.003Z,99.90
2023-05-10T21:36:15.439Z,99.90
2023-05-10T21:38:44.560Z,99.90
2023-05-10T21:41:13.076Z,99.90
2023-05-10T21:43:43.168Z,99.90
2023-05-10T21:46:13.270Z,99.90
2023-05-10T21:48:42.352Z,99.90
2023-05-10T21:51:11.100Z,99.90
2023-05-10T21:53:40.526Z,99.90
2023-05-10T21:56:09.504Z,99.90
2023-05-10T21:58:38.048Z,99.90
2023-05-10T22:01:08.088Z,99.90
2023-05-10T22:03:36.628Z,99.90
2023-05-10T22:06:06.008Z,99.90
2023-05-10T22:08:34.449Z,99.90
2023-05-10T22:11:02.977Z,99.90
2023-05-10T22:13:31.454Z,99.90
2023-05-10T22:16:00.196Z,99.90
2023-05-10T22:18:30.145Z,99.90
2023-05-10T22:20:59.352Z,99.90
2023-05-10T22:23:28.063Z,99.90
2023-05-10T22:26:02.616Z,99.90
2023-05-10T22:28:31.690Z,99.90
2023-05-10T22:31:00.382Z,99.90
2023-05-10T22:33:30.332Z,99.90
2023-05-10T22:35:59.062Z,99.90
2023-05-10T22:38:27.648Z,99.90
2023-05-10T22:40:56.423Z,99.90
2023-05-10T22:43:25.596Z,99.90
2023-05-10T22:45:54.425Z,99.90
2023-05-10T22:48:22.972Z,99.90
2023-05-10T22:50:52.831Z,99.90
2023-05-10T22:53:21.350Z,99.90
2023-05-10T22:55:49.943Z,99.90
2023-05-10T22:58:18.655Z,99.90
2023-05-10T23:00:47.289Z,99.90
2023-05-10T23:03:16.184Z,99.90
2023-05-10T23:05:44.774Z,99.90
2023-05-10T23:08:14.698Z,99.90
2023-05-10T23:10:43.481Z,99.90
2023-05-10T23:13:11.977Z,99.90
2023-05-10T23:15:40.866Z,99.90
2023-05-10T23:18:09.841Z,99.90
2023-05-10T23:20:38.426Z,99.90
2023-05-10T23:23:06.969Z,99.90
2023-05-10T23:25:37.293Z,99.90
2023-05-10T23:28:06.485Z,99.90
2023-05-10T23:30:35.200Z,99.90
2023-05-10T23:33:04.061Z,99.90
2023-05-10T23:35:32.712Z,99.90
2023-05-10T23:38:01.784Z,99.90
2023-05-10T23:40:30.331Z,99.90
2023-05-10T23:43:00.255Z,99.90
2023-05-10T23:45:28.841Z,99.90
2023-05-10T23:47:57.628Z,99.90
2023-05-10T23:50:26.383Z,99.90
2023-05-10T23:52:55.114Z,99.90
2023-05-10T23:55:23.649Z,99.90
2023-05-10T23:57:52.216Z,99.90
